sensor_id;sensor_type;location;lat;lon;timestamp;temperature;humidity
26964;DHT22;14521;48.148;-1.656;2023-08-12T00:01:40;24.70;99.90
26964;DHT22;14521;48.148;-1.656;2023-08-12T00:05:02;24.60;99.90
26964;DHT22;14521;48.148;-1.656;2023-08-12T00:08:25;24.70;99.90
26964;DHT22;14521;48.148;-1.656;2023-08-12T00:11:48;24.70;99.90
26964;DHT22;14521;48.148;-1.656;2023-08-12T00:15:10;24.70;99.90
26964;DHT22;14521;48.148;-1.656;2023-08-12T00:18:33;24.70;99.90
26964;DHT22;14521;48.148;-1.656;2023-08-12T00:21:58;24.70;99.90
26964;DHT22;14521;48.148;-1.656;2023-08-12T00:25:21;24.70;99.90
26964;DHT22;14521;48.148;-1.656;2023-08-12T00:28:43;24.70;99.90
26964;DHT22;14521;48.148;-1.656;2023-08-12T00:32:06;24.70;99.90
26964;DHT22;14521;48.148;-1.656;2023-08-12T00:35:28;24.70;99.90
26964;DHT22;14521;48.148;-1.656;2023-08-12T00:38:50;24.70;99.90
26964;DHT22;14521;48.148;-1.656;2023-08-12T00:42:12;24.60;99.90
26964;DHT22;14521;48.148;-1.656;2023-08-12T00:45:35;24.60;99.90
26964;DHT22;14521;48.148;-1.656;2023-08-12T00:48:57;24.60;99.90
26964;DHT22;14521;48.148;-1.656;2023-08-12T00:52:20;24.70;99.90
26964;DHT22;14521;48.148;-1.656;2023-08-12T00:55:42;24.70;99.90
26964;DHT22;14521;48.148;-1.656;2023-08-12T00:59:05;24.70;99.90
26964;DHT22;14521;48.148;-1.656;2023-08-12T01:02:29;24.60;99.90
26964;DHT22;14521;48.148;-1.656;2023-08-12T01:05:51;24.60;99.90
26964;DHT22;14521;48.148;-1.656;2023-08-12T01:09:14;24.60;99.90
26964;DHT22;14521;48.148;-1.656;2023-08-12T01:12:50;24.70;99.90
26964;DHT22;14521;48.148;-1.656;2023-08-12T01:16:15;24.70;99.90
26964;DHT22;14521;48.148;-1.656;2023-08-12T01:19:40;24.60;99.90
26964;DHT22;14521;48.148;-1.656;2023-08-12T01:23:10;24.60;99.90
26964;DHT22;14521;48.148;-1.656;2023-08-12T01:26:33;24.60;99.90
26964;DHT22;14521;48.148;-1.656;2023-08-12T01:29:56;24.60;99.90
26964;DHT22;14521;48.148;-1.656;2023-08-12T01:33:31;24.60;99.90
26964;DHT22;14521;48.148;-1.656;2023-08-12T01:36:55;24.60;99.90
26964;DHT22;14521;48.148;-1.656;2023-08-12T01:40:19;24.60;99.90
26964;DHT22;14521;48.148;-1.656;2023-08-12T01:43:42;24.60;99.90
26964;DHT22;14521;48.148;-1.656;2023-08-12T01:47:08;24.60;99.90
26964;DHT22;14521;48.148;-1.656;2023-08-12T01:50:32;24.60;99.90
26964;DHT22;14521;48.148;-1.656;2023-08-12T01:53:54;24.60;99.90
26964;DHT22;14521;48.148;-1.656;2023-08-12T01:57:17;24.60;99.90
26964;DHT22;14521;48.148;-1.656;2023-08-12T02:00:39;24.60;99.90
26964;DHT22;14521;48.148;-1.656;2023-08-12T02:04:01;24.60;99.90
26964;DHT22;14521;48.148;-1.656;2023-08-12T02:07:23;24.60;99.90
26964;DHT22;14521;48.148;-1.656;2023-08-12T02:10:46;24.60;99.90
26964;DHT22;14521;48.148;-1.656;2023-08-12T02:14:09;24.60;99.90
26964;DHT22;14521;48.148;-1.656;2023-08-12T02:17:32;24.60;99.90
26964;DHT22;14521;48.148;-1.656;2023-08-12T02:20:54;24.60;99.90
26964;DHT22;14521;48.148;-1.656;2023-08-12T02:24:16;24.60;99.90
26964;DHT22;14521;48.148;-1.656;2023-08-12T02:27:38;24.60;99.90
26964;DHT22;14521;48.148;-1.656;2023-08-12T02:31:01;24.60;99.90
26964;DHT22;14521;48.148;-1.656;2023-08-12T02:34:24;24.60;99.90
26964;DHT22;14521;48.148;-1.656;2023-08-12T02:37:48;24.60;99.90
26964;DHT22;14521;48.148;-1.656;2023-08-12T02:41:10;24.60;99.90
26964;DHT22;14521;48.148;-1.656;2023-08-12T02:44:32;24.60;99.90
26964;DHT22;14521;48.148;-1.656;2023-08-12T02:47:55;24.60;99.90
26964;DHT22;14521;48.148;-1.656;2023-08-12T02:51:17;24.60;99.90
26964;DHT22;14521;48.148;-1.656;2023-08-12T02:54:39;24.60;99.90
26964;DHT22;14521;48.148;-1.656;2023-08-12T02:58:02;24.50;99.90
26964;DHT22;14521;48.148;-1.656;2023-08-12T03:01:25;24.60;99.90
26964;DHT22;14521;48.148;-1.656;2023-08-12T03:04:47;24.60;99.90
26964;DHT22;14521;48.148;-1.656;2023-08-12T03:08:10;24.60;99.90
26964;DHT22;14521;48.148;-1.656;2023-08-12T03:11:33;24.60;99.90
26964;DHT22;14521;48.148;-1.656;2023-08-12T03:14:57;24.60;99.90
26964;DHT22;14521;48.148;-1.656;2023-08-12T03:18:20;24.60;99.90
26964;DHT22;14521;48.148;-1.656;2023-08-12T03:21:43;24.60;99.90
26964;DHT22;14521;48.148;-1.656;2023-08-12T03:25:06;24.60;99.90
26964;DHT22;14521;48.148;-1.656;2023-08-12T03:28:29;24.60;99.90
26964;DHT22;14521;48.148;-1.656;2023-08-12T03:31:52;24.60;99.90
26964;DHT22;14521;48.148;-1.656;2023-08-12T03:35:16;24.60;99.90
26964;DHT22;14521;48.148;-1.656;2023-08-12T03:38:41;24.60;99.90
26964;DHT22;14521;48.148;-1.656;2023-08-12T03:42:09;24.50;99.90
26964;DHT22;14521;48.148;-1.656;2023-08-12T03:45:31;24.50;99.90
26964;DHT22;14521;48.148;-1.656;2023-08-12T03:48:54;24.50;99.90
26964;DHT22;14521;48.148;-1.656;2023-08-12T03:52:16;24.60;99.90
26964;DHT22;14521;48.148;-1.656;2023-08-12T03:55:38;24.50;99.90
26964;DHT22;14521;48.148;-1.656;2023-08-12T03:59:02;24.50;99.90
26964;DHT22;14521;48.148;-1.656;2023-08-12T04:02:25;24.50;99.90
26964;DHT22;14521;48.148;-1.656;2023-08-12T04:05:51;24.50;99.90
26964;DHT22;14521;48.148;-1.656;2023-08-12T04:09:15;24.50;99.90
26964;DHT22;14521;48.148;-1.656;2023-08-12T04:12:37;24.60;99.90
26964;DHT22;14521;48.148;-1.656;2023-08-12T04:16:00;24.50;99.90
26964;DHT22;14521;48.148;-1.656;2023-08-12T04:19:22;24.60;99.90
26964;DHT22;14521;48.148;-1.656;2023-08-12T04:22:44;24.30;99.90
26964;DHT22;14521;48.148;-1.656;2023-08-12T04:26:10;24.20;99.90
26964;DHT22;14521;48.148;-1.656;2023-08-12T04:29:33;24.10;99.90
26964;DHT22;14521;48.148;-1.656;2023-08-12T04:32:55;24.10;99.90
26964;DHT22;14521;48.148;-1.656;2023-08-12T04:36:20;24.00;99.90
26964;DHT22;14521;48.148;-1.656;2023-08-12T04:39:43;24.00;99.90
26964;DHT22;14521;48.148;-1.656;2023-08-12T04:43:07;24.00;99.90
26964;DHT22;14521;48.148;-1.656;2023-08-12T04:46:30;24.00;99.90
26964;DHT22;14521;48.148;-1.656;2023-08-12T04:49:53;24.00;99.90
26964;DHT22;14521;48.148;-1.656;2023-08-12T04:53:15;23.90;99.90
26964;DHT22;14521;48.148;-1.656;2023-08-12T04:56:37;23.90;99.90
26964;DHT22;14521;48.148;-1.656;2023-08-12T05:00:00;23.90;99.90
26964;DHT22;14521;48.148;-1.656;2023-08-12T05:03:22;23.80;99.90
26964;DHT22;14521;48.148;-1.656;2023-08-12T05:07:04;23.80;99.90
26964;DHT22;14521;48.148;-1.656;2023-08-12T05:10:26;23.70;99.90
26964;DHT22;14521;48.148;-1.656;2023-08-12T05:13:49;23.80;99.90
26964;DHT22;14521;48.148;-1.656;2023-08-12T05:17:11;23.80;99.90
26964;DHT22;14521;48.148;-1.656;2023-08-12T05:20:33;23.80;99.90
26964;DHT22;14521;48.148;-1.656;2023-08-12T05:23:56;23.80;99.90
26964;DHT22;14521;48.148;-1.656;2023-08-12T05:27:18;23.80;99.90
26964;DHT22;14521;48.148;-1.656;2023-08-12T05:30:40;23.80;99.90
26964;DHT22;14521;48.148;-1.656;2023-08-12T05:34:21;23.80;99.90
26964;DHT22;14521;48.148;-1.656;2023-08-12T05:37:43;23.80;99.90
26964;DHT22;14521;48.148;-1.656;2023-08-12T05:41:05;23.80;99.90
26964;DHT22;14521;48.148;-1.656;2023-08-12T05:44:29;23.80;99.90
26964;DHT22;14521;48.148;-1.656;2023-08-12T05:47:51;23.80;99.90
26964;DHT22;14521;48.148;-1.656;2023-08-12T05:51:14;23.80;99.90
26964;DHT22;14521;48.148;-1.656;2023-08-12T05:54:36;23.80;99.90
26964;DHT22;14521;48.148;-1.656;2023-08-12T05:57:58;23.80;99.90
26964;DHT22;14521;48.148;-1.656;2023-08-12T06:01:20;23.80;99.90
26964;DHT22;14521;48.148;-1.656;2023-08-12T06:04:43;23.80;99.90
26964;DHT22;14521;48.148;-1.656;2023-08-12T06:08:05;23.80;99.90
26964;DHT22;14521;48.148;-1.656;2023-08-12T06:11:28;23.90;99.90
26964;DHT22;14521;48.148;-1.656;2023-08-12T06:14:50;23.90;99.90
26964;DHT22;14521;48.148;-1.656;2023-08-12T06:18:12;23.90;99.90
26964;DHT22;14521;48.148;-1.656;2023-08-12T06:21:34;23.90;99.90
26964;DHT22;14521;48.148;-1.656;2023-08-12T06:24:57;23.90;99.90
26964;DHT22;14521;48.148;-1.656;2023-08-12T06:28:19;24.00;99.90
26964;DHT22;14521;48.148;-1.656;2023-08-12T06:31:41;23.90;99.90
26964;DHT22;14521;48.148;-1.656;2023-08-12T06:35:04;23.90;99.90
26964;DHT22;14521;48.148;-1.656;2023-08-12T06:38:26;23.90;99.90
26964;DHT22;14521;48.148;-1.656;2023-08-12T06:41:48;23.90;99.90
26964;DHT22;14521;48.148;-1.656;2023-08-12T06:45:12;23.90;99.90
26964;DHT22;14521;48.148;-1.656;2023-08-12T06:48:35;23.80;99.90
26964;DHT22;14521;48.148;-1.656;2023-08-12T06:51:57;23.90;99.90
26964;DHT22;14521;48.148;-1.656;2023-08-12T06:55:19;23.90;99.30
26964;DHT22;14521;48.148;-1.656;2023-08-12T06:58:42;23.90;99.60
26964;DHT22;14521;48.148;-1.656;2023-08-12T07:02:05;23.90;99.40
26964;DHT22;14521;48.148;-1.656;2023-08-12T07:05:27;24.00;99.90
26964;DHT22;14521;48.148;-1.656;2023-08-12T07:08:50;24.00;99.90
26964;DHT22;14521;48.148;-1.656;2023-08-12T07:12:12;24.00;99.90
26964;DHT22;14521;48.148;-1.656;2023-08-12T07:15:35;24.00;99.30
26964;DHT22;14521;48.148;-1.656;2023-08-12T07:18:57;24.00;99.90
26964;DHT22;14521;48.148;-1.656;2023-08-12T07:22:20;24.10;99.40
26964;DHT22;14521;48.148;-1.656;2023-08-12T07:25:42;24.10;99.40
26964;DHT22;14521;48.148;-1.656;2023-08-12T07:29:05;24.10;98.70
26964;DHT22;14521;48.148;-1.656;2023-08-12T07:32:27;24.00;99.50
26964;DHT22;14521;48.148;-1.656;2023-08-12T07:35:49;24.10;99.20
26964;DHT22;14521;48.148;-1.656;2023-08-12T07:39:11;24.20;98.50
26964;DHT22;14521;48.148;-1.656;2023-08-12T07:42:52;24.10;97.90
26964;DHT22;14521;48.148;-1.656;2023-08-12T07:46:14;24.00;97.00
26964;DHT22;14521;48.148;-1.656;2023-08-12T07:49:56;23.80;96.80
26964;DHT22;14521;48.148;-1.656;2023-08-12T07:53:18;23.80;98.10
26964;DHT22;14521;48.148;-1.656;2023-08-12T07:56:40;23.90;98.20
26964;DHT22;14521;48.148;-1.656;2023-08-12T08:00:03;23.80;98.50
26964;DHT22;14521;48.148;-1.656;2023-08-12T08:03:25;23.60;98.20
26964;DHT22;14521;48.148;-1.656;2023-08-12T08:06:48;23.60;98.00
26964;DHT22;14521;48.148;-1.656;2023-08-12T08:10:12;23.70;98.60
26964;DHT22;14521;48.148;-1.656;2023-08-12T08:13:34;23.80;98.00
26964;DHT22;14521;48.148;-1.656;2023-08-12T08:16:57;23.80;98.00
26964;DHT22;14521;48.148;-1.656;2023-08-12T08:20:20;23.80;97.70
26964;DHT22;14521;48.148;-1.656;2023-08-12T08:23:42;23.90;97.80
26964;DHT22;14521;48.148;-1.656;2023-08-12T08:27:04;23.90;97.40
26964;DHT22;14521;48.148;-1.656;2023-08-12T08:30:27;23.90;97.40
26964;DHT22;14521;48.148;-1.656;2023-08-12T08:33:49;23.80;97.20
26964;DHT22;14521;48.148;-1.656;2023-08-12T08:37:11;23.60;97.40
26964;DHT22;14521;48.148;-1.656;2023-08-12T08:40:34;23.70;97.40
26964;DHT22;14521;48.148;-1.656;2023-08-12T08:44:01;23.80;97.40
26964;DHT22;14521;48.148;-1.656;2023-08-12T08:47:26;24.00;97.00
26964;DHT22;14521;48.148;-1.656;2023-08-12T08:50:49;24.00;96.30
26964;DHT22;14521;48.148;-1.656;2023-08-12T08:54:12;23.90;96.40
26964;DHT22;14521;48.148;-1.656;2023-08-12T08:57:37;24.00;95.70
26964;DHT22;14521;48.148;-1.656;2023-08-12T09:01:09;24.00;96.00
26964;DHT22;14521;48.148;-1.656;2023-08-12T09:04:33;24.00;95.60
26964;DHT22;14521;48.148;-1.656;2023-08-12T09:07:56;24.10;95.90
26964;DHT22;14521;48.148;-1.656;2023-08-12T09:11:20;24.10;96.10
26964;DHT22;14521;48.148;-1.656;2023-08-12T09:14:43;24.10;96.20
26964;DHT22;14521;48.148;-1.656;2023-08-12T09:18:06;24.10;96.10
26964;DHT22;14521;48.148;-1.656;2023-08-12T09:21:28;24.10;96.00
26964;DHT22;14521;48.148;-1.656;2023-08-12T09:25:00;24.10;95.90
26964;DHT22;14521;48.148;-1.656;2023-08-12T09:28:24;24.10;96.00
26964;DHT22;14521;48.148;-1.656;2023-08-12T09:31:47;24.10;95.80
26964;DHT22;14521;48.148;-1.656;2023-08-12T09:35:16;24.10;95.80
26964;DHT22;14521;48.148;-1.656;2023-08-12T09:38:38;24.10;95.80
26964;DHT22;14521;48.148;-1.656;2023-08-12T09:42:00;24.10;95.70
26964;DHT22;14521;48.148;-1.656;2023-08-12T09:45:24;24.10;95.40
26964;DHT22;14521;48.148;-1.656;2023-08-12T09:48:47;24.10;95.40
26964;DHT22;14521;48.148;-1.656;2023-08-12T09:52:09;24.00;95.30
26964;DHT22;14521;48.148;-1.656;2023-08-12T09:55:34;24.10;95.20
26964;DHT22;14521;48.148;-1.656;2023-08-12T09:58:57;24.10;95.10
26964;DHT22;14521;48.148;-1.656;2023-08-12T10:02:20;24.10;95.10
26964;DHT22;14521;48.148;-1.656;2023-08-12T10:05:43;24.10;94.80
26964;DHT22;14521;48.148;-1.656;2023-08-12T10:09:05;24.10;94.60
26964;DHT22;14521;48.148;-1.656;2023-08-12T10:12:30;24.10;94.40
26964;DHT22;14521;48.148;-1.656;2023-08-12T10:15:52;24.10;94.00
26964;DHT22;14521;48.148;-1.656;2023-08-12T10:19:16;24.10;93.90
26964;DHT22;14521;48.148;-1.656;2023-08-12T10:22:40;24.20;93.80
26964;DHT22;14521;48.148;-1.656;2023-08-12T10:26:07;24.20;93.40
26964;DHT22;14521;48.148;-1.656;2023-08-12T10:29:30;24.20;93.10
26964;DHT22;14521;48.148;-1.656;2023-08-12T10:32:52;24.20;92.90
26964;DHT22;14521;48.148;-1.656;2023-08-12T10:36:15;24.20;92.60
26964;DHT22;14521;48.148;-1.656;2023-08-12T10:39:41;24.20;92.30
26964;DHT22;14521;48.148;-1.656;2023-08-12T10:43:03;24.20;92.20
26964;DHT22;14521;48.148;-1.656;2023-08-12T10:46:34;24.20;92.20
26964;DHT22;14521;48.148;-1.656;2023-08-12T10:49:58;24.10;92.30
26964;DHT22;14521;48.148;-1.656;2023-08-12T10:53:27;24.00;91.80
26964;DHT22;14521;48.148;-1.656;2023-08-12T11:00:29;24.00;92.10
26964;DHT22;14521;48.148;-1.656;2023-08-12T11:03:51;24.10;92.20
26964;DHT22;14521;48.148;-1.656;2023-08-12T11:08:02;24.20;92.40
26964;DHT22;14521;48.148;-1.656;2023-08-12T11:11:19;24.20;92.10
26964;DHT22;14521;48.148;-1.656;2023-08-12T11:14:53;24.20;91.40
26964;DHT22;14521;48.148;-1.656;2023-08-12T11:18:18;24.10;91.20
26964;DHT22;14521;48.148;-1.656;2023-08-12T11:21:40;24.20;91.90
26964;DHT22;14521;48.148;-1.656;2023-08-12T11:25:05;24.30;91.10
26964;DHT22;14521;48.148;-1.656;2023-08-12T11:28:30;24.10;90.60
26964;DHT22;14521;48.148;-1.656;2023-08-12T11:31:52;24.00;91.30
26964;DHT22;14521;48.148;-1.656;2023-08-12T11:35:15;24.00;91.00
26964;DHT22;14521;48.148;-1.656;2023-08-12T11:38:38;24.10;90.40
26964;DHT22;14521;48.148;-1.656;2023-08-12T11:42:00;24.10;90.20
26964;DHT22;14521;48.148;-1.656;2023-08-12T11:45:24;24.20;90.20
26964;DHT22;14521;48.148;-1.656;2023-08-12T11:48:47;24.20;89.80
26964;DHT22;14521;48.148;-1.656;2023-08-12T11:52:13;24.10;89.70
26964;DHT22;14521;48.148;-1.656;2023-08-12T11:55:36;24.20;90.10
26964;DHT22;14521;48.148;-1.656;2023-08-12T11:58:59;24.20;90.10
26964;DHT22;14521;48.148;-1.656;2023-08-12T12:02:21;24.20;90.30
26964;DHT22;14521;48.148;-1.656;2023-08-12T12:05:46;24.30;90.60
26964;DHT22;14521;48.148;-1.656;2023-08-12T12:09:09;24.40;91.10
26964;DHT22;14521;48.148;-1.656;2023-08-12T12:12:35;24.50;91.00
26964;DHT22;14521;48.148;-1.656;2023-08-12T12:15:58;24.60;91.00
26964;DHT22;14521;48.148;-1.656;2023-08-12T12:19:21;24.70;90.90
26964;DHT22;14521;48.148;-1.656;2023-08-12T12:22:44;24.70;90.80
26964;DHT22;14521;48.148;-1.656;2023-08-12T12:26:09;24.70;90.80
26964;DHT22;14521;48.148;-1.656;2023-08-12T12:29:31;24.80;89.10
26964;DHT22;14521;48.148;-1.656;2023-08-12T12:32:53;24.80;89.10
26964;DHT22;14521;48.148;-1.656;2023-08-12T12:36:16;24.70;89.50
26964;DHT22;14521;48.148;-1.656;2023-08-12T12:39:38;24.70;87.50
26964;DHT22;14521;48.148;-1.656;2023-08-12T12:43:01;24.80;88.10
26964;DHT22;14521;48.148;-1.656;2023-08-12T12:46:24;24.70;88.10
26964;DHT22;14521;48.148;-1.656;2023-08-12T12:49:47;24.60;87.70
26964;DHT22;14521;48.148;-1.656;2023-08-12T12:53:09;24.60;87.10
26964;DHT22;14521;48.148;-1.656;2023-08-12T12:56:31;24.60;87.40
26964;DHT22;14521;48.148;-1.656;2023-08-12T12:59:54;24.50;87.40
26964;DHT22;14521;48.148;-1.656;2023-08-12T13:03:16;24.50;89.20
26964;DHT22;14521;48.148;-1.656;2023-08-12T13:06:38;24.50;88.80
26964;DHT22;14521;48.148;-1.656;2023-08-12T13:10:00;24.50;88.90
26964;DHT22;14521;48.148;-1.656;2023-08-12T13:13:23;24.50;89.60
26964;DHT22;14521;48.148;-1.656;2023-08-12T13:16:45;24.40;86.40
26964;DHT22;14521;48.148;-1.656;2023-08-12T13:20:08;24.30;86.60
26964;DHT22;14521;48.148;-1.656;2023-08-12T13:23:31;24.30;86.20
26964;DHT22;14521;48.148;-1.656;2023-08-12T13:26:54;24.40;86.10
26964;DHT22;14521;48.148;-1.656;2023-08-12T13:30:16;24.50;85.30
26964;DHT22;14521;48.148;-1.656;2023-08-12T13:33:39;24.60;85.20
26964;DHT22;14521;48.148;-1.656;2023-08-12T13:37:01;24.60;84.60
26964;DHT22;14521;48.148;-1.656;2023-08-12T13:40:23;24.70;83.20
26964;DHT22;14521;48.148;-1.656;2023-08-12T13:43:46;24.60;83.10
26964;DHT22;14521;48.148;-1.656;2023-08-12T13:47:08;24.60;84.10
26964;DHT22;14521;48.148;-1.656;2023-08-12T13:50:30;24.50;84.30
26964;DHT22;14521;48.148;-1.656;2023-08-12T13:53:54;24.60;84.90
26964;DHT22;14521;48.148;-1.656;2023-08-12T13:57:16;24.60;85.10
26964;DHT22;14521;48.148;-1.656;2023-08-12T14:00:39;24.50;83.80
26964;DHT22;14521;48.148;-1.656;2023-08-12T14:04:01;24.50;83.00
26964;DHT22;14521;48.148;-1.656;2023-08-12T14:07:23;24.60;84.10
26964;DHT22;14521;48.148;-1.656;2023-08-12T14:10:46;24.50;83.80
26964;DHT22;14521;48.148;-1.656;2023-08-12T14:14:09;24.60;83.70
26964;DHT22;14521;48.148;-1.656;2023-08-12T14:17:31;24.50;84.20
26964;DHT22;14521;48.148;-1.656;2023-08-12T14:20:54;24.50;83.90
26964;DHT22;14521;48.148;-1.656;2023-08-12T14:24:16;24.50;84.40
26964;DHT22;14521;48.148;-1.656;2023-08-12T14:27:39;24.50;84.30
26964;DHT22;14521;48.148;-1.656;2023-08-12T14:31:01;24.40;84.60
26964;DHT22;14521;48.148;-1.656;2023-08-12T14:34:24;24.40;84.60
26964;DHT22;14521;48.148;-1.656;2023-08-12T14:37:46;24.40;85.10
26964;DHT22;14521;48.148;-1.656;2023-08-12T14:41:08;24.40;85.60
26964;DHT22;14521;48.148;-1.656;2023-08-12T14:44:31;24.40;86.00
26964;DHT22;14521;48.148;-1.656;2023-08-12T14:47:58;24.50;86.10
26964;DHT22;14521;48.148;-1.656;2023-08-12T14:51:20;24.50;86.40
26964;DHT22;14521;48.148;-1.656;2023-08-12T14:54:42;24.60;87.40
26964;DHT22;14521;48.148;-1.656;2023-08-12T14:58:05;24.60;86.10
26964;DHT22;14521;48.148;-1.656;2023-08-12T15:01:27;24.50;86.10
26964;DHT22;14521;48.148;-1.656;2023-08-12T15:04:50;24.40;86.60
26964;DHT22;14521;48.148;-1.656;2023-08-12T15:08:12;24.40;86.10
26964;DHT22;14521;48.148;-1.656;2023-08-12T15:11:34;24.40;86.30
26964;DHT22;14521;48.148;-1.656;2023-08-12T15:14:57;24.30;86.90
26964;DHT22;14521;48.148;-1.656;2023-08-12T15:18:19;24.30;87.30
26964;DHT22;14521;48.148;-1.656;2023-08-12T15:21:41;24.20;85.70
26964;DHT22;14521;48.148;-1.656;2023-08-12T15:25:04;24.20;87.00
26964;DHT22;14521;48.148;-1.656;2023-08-12T15:28:27;24.20;86.20
26964;DHT22;14521;48.148;-1.656;2023-08-12T15:31:50;24.10;86.50
26964;DHT22;14521;48.148;-1.656;2023-08-12T15:35:12;24.10;85.70
26964;DHT22;14521;48.148;-1.656;2023-08-12T15:38:35;24.20;85.70
26964;DHT22;14521;48.148;-1.656;2023-08-12T15:41:57;24.30;86.20
26964;DHT22;14521;48.148;-1.656;2023-08-12T15:45:20;24.40;86.60
26964;DHT22;14521;48.148;-1.656;2023-08-12T15:48:42;24.40;86.10
26964;DHT22;14521;48.148;-1.656;2023-08-12T15:52:05;24.40;86.60
26964;DHT22;14521;48.148;-1.656;2023-08-12T15:55:27;24.40;86.70
26964;DHT22;14521;48.148;-1.656;2023-08-12T15:58:50;24.40;87.10
26964;DHT22;14521;48.148;-1.656;2023-08-12T16:02:12;24.40;87.40
26964;DHT22;14521;48.148;-1.656;2023-08-12T16:05:35;24.20;87.30
26964;DHT22;14521;48.148;-1.656;2023-08-12T16:08:57;24.20;87.70
26964;DHT22;14521;48.148;-1.656;2023-08-12T16:12:38;24.20;86.90
26964;DHT22;14521;48.148;-1.656;2023-08-12T16:16:01;24.20;87.50
26964;DHT22;14521;48.148;-1.656;2023-08-12T16:19:23;24.20;87.70
26964;DHT22;14521;48.148;-1.656;2023-08-12T16:22:46;24.20;87.40
26964;DHT22;14521;48.148;-1.656;2023-08-12T16:26:08;24.20;88.00
26964;DHT22;14521;48.148;-1.656;2023-08-12T16:29:31;24.20;88.40
26964;DHT22;14521;48.148;-1.656;2023-08-12T16:32:53;24.20;88.10
26964;DHT22;14521;48.148;-1.656;2023-08-12T16:36:15;24.20;89.00
26964;DHT22;14521;48.148;-1.656;2023-08-12T16:39:38;24.20;88.70
26964;DHT22;14521;48.148;-1.656;2023-08-12T16:43:00;24.20;89.00
26964;DHT22;14521;48.148;-1.656;2023-08-12T16:46:22;24.20;89.10
26964;DHT22;14521;48.148;-1.656;2023-08-12T16:49:45;24.20;89.20
26964;DHT22;14521;48.148;-1.656;2023-08-12T16:53:07;24.20;89.30
26964;DHT22;14521;48.148;-1.656;2023-08-12T16:56:32;24.20;89.40
26964;DHT22;14521;48.148;-1.656;2023-08-12T16:59:54;24.10;90.00
26964;DHT22;14521;48.148;-1.656;2023-08-12T17:03:16;24.20;89.50
26964;DHT22;14521;48.148;-1.656;2023-08-12T17:06:38;24.10;89.40
26964;DHT22;14521;48.148;-1.656;2023-08-12T17:10:04;24.10;89.10
26964;DHT22;14521;48.148;-1.656;2023-08-12T17:13:26;24.10;89.00
26964;DHT22;14521;48.148;-1.656;2023-08-12T17:16:48;24.10;89.50
26964;DHT22;14521;48.148;-1.656;2023-08-12T17:20:11;24.10;89.90
26964;DHT22;14521;48.148;-1.656;2023-08-12T17:23:33;24.20;89.80
26964;DHT22;14521;48.148;-1.656;2023-08-12T17:26:56;24.30;89.90
26964;DHT22;14521;48.148;-1.656;2023-08-12T17:30:18;24.40;89.90
26964;DHT22;14521;48.148;-1.656;2023-08-12T17:33:40;24.40;90.00
26964;DHT22;14521;48.148;-1.656;2023-08-12T17:37:03;24.30;90.40
26964;DHT22;14521;48.148;-1.656;2023-08-12T17:40:25;24.30;90.50
26964;DHT22;14521;48.148;-1.656;2023-08-12T17:43:48;24.30;90.70
26964;DHT22;14521;48.148;-1.656;2023-08-12T17:47:10;24.30;91.00
26964;DHT22;14521;48.148;-1.656;2023-08-12T17:50:34;24.40;91.10
26964;DHT22;14521;48.148;-1.656;2023-08-12T17:53:56;24.40;91.40
26964;DHT22;14521;48.148;-1.656;2023-08-12T17:57:19;24.40;91.40
26964;DHT22;14521;48.148;-1.656;2023-08-12T18:00:41;24.30;91.60
26964;DHT22;14521;48.148;-1.656;2023-08-12T18:04:03;24.30;91.60
26964;DHT22;14521;48.148;-1.656;2023-08-12T18:07:26;24.30;91.90
26964;DHT22;14521;48.148;-1.656;2023-08-12T18:10:48;24.30;91.90
26964;DHT22;14521;48.148;-1.656;2023-08-12T18:14:11;24.30;91.70
26964;DHT22;14521;48.148;-1.656;2023-08-12T18:17:33;24.30;92.10
26964;DHT22;14521;48.148;-1.656;2023-08-12T18:20:56;24.30;91.80
26964;DHT22;14521;48.148;-1.656;2023-08-12T18:24:18;24.30;91.70
26964;DHT22;14521;48.148;-1.656;2023-08-12T18:27:40;24.30;91.70
26964;DHT22;14521;48.148;-1.656;2023-08-12T18:31:03;24.20;91.90
26964;DHT22;14521;48.148;-1.656;2023-08-12T18:34:25;24.30;92.20
26964;DHT22;14521;48.148;-1.656;2023-08-12T18:37:47;24.30;92.20
26964;DHT22;14521;48.148;-1.656;2023-08-12T18:41:10;24.30;93.40
26964;DHT22;14521;48.148;-1.656;2023-08-12T18:44:32;24.40;93.20
26964;DHT22;14521;48.148;-1.656;2023-08-12T18:47:54;24.30;93.10
26964;DHT22;14521;48.148;-1.656;2023-08-12T18:51:17;24.30;93.20
26964;DHT22;14521;48.148;-1.656;2023-08-12T18:54:41;24.30;92.90
26964;DHT22;14521;48.148;-1.656;2023-08-12T18:58:04;24.30;93.00
26964;DHT22;14521;48.148;-1.656;2023-08-12T19:01:26;24.30;92.80
26964;DHT22;14521;48.148;-1.656;2023-08-12T19:04:49;24.30;93.10
26964;DHT22;14521;48.148;-1.656;2023-08-12T19:08:11;24.30;93.10
26964;DHT22;14521;48.148;-1.656;2023-08-12T19:11:37;24.30;93.00
26964;DHT22;14521;48.148;-1.656;2023-08-12T19:15:00;24.30;93.20
26964;DHT22;14521;48.148;-1.656;2023-08-12T19:18:23;24.30;93.70
26964;DHT22;14521;48.148;-1.656;2023-08-12T19:21:45;24.30;93.60
26964;DHT22;14521;48.148;-1.656;2023-08-12T19:25:08;24.30;93.30
26964;DHT22;14521;48.148;-1.656;2023-08-12T19:28:30;24.30;93.20
26964;DHT22;14521;48.148;-1.656;2023-08-12T19:31:52;24.30;93.30
26964;DHT22;14521;48.148;-1.656;2023-08-12T19:35:16;24.20;93.20
26964;DHT22;14521;48.148;-1.656;2023-08-12T19:38:39;24.20;93.20
26964;DHT22;14521;48.148;-1.656;2023-08-12T19:42:01;24.20;93.30
26964;DHT22;14521;48.148;-1.656;2023-08-12T19:45:23;24.20;93.50
26964;DHT22;14521;48.148;-1.656;2023-08-12T19:48:45;24.20;93.80
26964;DHT22;14521;48.148;-1.656;2023-08-12T19:52:08;24.20;93.80
26964;DHT22;14521;48.148;-1.656;2023-08-12T19:55:30;24.20;93.60
26964;DHT22;14521;48.148;-1.656;2023-08-12T19:58:52;24.10;93.50
26964;DHT22;14521;48.148;-1.656;2023-08-12T20:02:15;24.10;93.80
26964;DHT22;14521;48.148;-1.656;2023-08-12T20:05:54;24.00;93.70
26964;DHT22;14521;48.148;-1.656;2023-08-12T20:09:16;23.90;94.00
26964;DHT22;14521;48.148;-1.656;2023-08-12T20:12:39;24.00;93.90
26964;DHT22;14521;48.148;-1.656;2023-08-12T20:16:01;23.90;93.80
26964;DHT22;14521;48.148;-1.656;2023-08-12T20:19:25;23.70;93.90
26964;DHT22;14521;48.148;-1.656;2023-08-12T20:22:47;23.70;94.10
26964;DHT22;14521;48.148;-1.656;2023-08-12T20:26:27;23.70;94.00
26964;DHT22;14521;48.148;-1.656;2023-08-12T20:29:49;23.80;94.00
26964;DHT22;14521;48.148;-1.656;2023-08-12T20:33:12;23.80;94.20
26964;DHT22;14521;48.148;-1.656;2023-08-12T20:36:34;23.70;94.40
26964;DHT22;14521;48.148;-1.656;2023-08-12T20:39:56;23.60;94.60
26964;DHT22;14521;48.148;-1.656;2023-08-12T20:43:19;23.50;94.90
26964;DHT22;14521;48.148;-1.656;2023-08-12T20:46:41;23.50;94.90
26964;DHT22;14521;48.148;-1.656;2023-08-12T20:50:04;23.60;94.40
26964;DHT22;14521;48.148;-1.656;2023-08-12T20:53:27;23.70;94.40
26964;DHT22;14521;48.148;-1.656;2023-08-12T20:56:50;23.50;94.70
26964;DHT22;14521;48.148;-1.656;2023-08-12T21:00:13;23.50;95.00
26964;DHT22;14521;48.148;-1.656;2023-08-12T21:03:35;23.40;95.20
26964;DHT22;14521;48.148;-1.656;2023-08-12T21:06:58;23.40;95.20